Pagina principale
METAR-TAF:

METAR-TAF

Aeroporti :

Aeroporto di Lugano-Agno

Lugano, Svizzera

latitudine: 46-00N, longitudine: 008-58E, altezza: 273 m

Osservazione

Il bollettino è stato emesso 33 minuti fa, alle 04:50 UTC
Vento 3 kt da nord
Temperature 13°C
Umidità 82%
Pressione 1019 hPa
Visibilità 10 km o più
nessuna nube inferiore a 1500 m e nessun cumulonembo

METAR: LSZA 240450Z 36003KT CAVOK 13/10 Q1019 NOSIG

Ora: 07:23 (05:23 UTC)

Previsione

Il bollettino è stato emesso 2 ore e 58 minuti fa, alle 02:25 UTC
Previsione valida dal 24 alle 03 UTC al 24 alle 12 UTC
Vento 3 kt da direzioni variabili
Visibilità 10 km o più
nessuna nube inferiore a 1500 m e nessun cumulonembo
Evoluzione graduale
dal 24 alle 08 UTC al 24 alle 11 UTC
Visibilità 10 km o più
Poco nuvoloso ad un'altezza di 6000 ft
Nubi sparse ad un'altezza di 16000 ft

TAF: LSZA 240225Z 2403/2412 VRB03KT CAVOK BECMG 2408/2411 9999 FEW060 SCT160

Osservazioni e previsioni meteorologiche di più di 4000 aeroporti (messaggi METAR e TAF).

Le stazioni disponibili sono rappresentate dai dischi gialli e rossi sulla carta.

Puntare il mouse per vedere il nome della stazione.

Clicca sopra per visualizzare le osservazioni e previsioni meteorologiche.

Per cambiare la mappa : fare clic sui pulsanti verdi con una croce nera per ingrandire, il pulsante verde con un trattino per diminuire, o sulla freccia verde per le mappe adiacenti.


METAR-TAF: